Time;durP1;ratioP1;P1;durP2;ratioP2;P2;SDS_P1;SDS_P2;PMS_P1;PMS_P2;Temp;Humidity;BMP_temperature;BMP_pressure;BME280_temperature;BME280_humidity;BME280_pressure;Samples;Min_cycle;Max_cycle;Signal;HPM_P1;HPM_P2
2023/09/04 00:01:27;;;;;;;8.07;5.03;;;;;;;15.03;100.00;102435.47;4999196;28;20161;-77
2023/09/04 00:03:53;;;;;;;7.75;4.90;;;;;;;15.02;100.00;102441.66;5000076;28;20117;-75
2023/09/04 00:06:18;;;;;;;11.38;4.80;;;;;;;14.96;100.00;102437.84;4980081;28;20042;-76
2023/09/04 00:08:43;;;;;;;9.63;5.32;;;;;;;14.94;100.00;102439.78;4987530;28;20042;-76
2023/09/04 00:11:09;;;;;;;8.52;5.50;;;;;;;14.93;100.00;102440.72;4999319;28;20049;-76
2023/09/04 00:13:36;;;;;;;12.40;5.70;;;;;;;14.87;100.00;102436.09;4988072;28;20052;-76
2023/09/04 00:16:02;;;;;;;7.80;5.47;;;;;;;14.78;100.00;102443.00;5000098;28;20146;-76
2023/09/04 00:18:27;;;;;;;8.40;5.60;;;;;;;14.68;100.00;102429.16;4987612;28;20045;-76
2023/09/04 00:20:53;;;;;;;8.40;5.35;;;;;;;14.63;100.00;102431.38;4982044;28;20050;-76
2023/09/04 00:23:18;;;;;;;8.55;5.50;;;;;;;14.57;100.00;102426.72;4986535;28;20034;-76
2023/09/04 00:25:44;;;;;;;10.68;5.45;;;;;;;14.50;100.00;102425.63;5004842;28;20033;-77
2023/09/04 00:28:09;;;;;;;8.60;5.20;;;;;;;14.45;100.00;102422.59;5006737;28;20484;-76
2023/09/04 00:30:35;;;;;;;9.02;5.05;;;;;;;14.39;100.00;102424.00;4983023;28;20038;-77
2023/09/04 00:33:02;;;;;;;9.95;4.68;;;;;;;14.35;100.00;102427.84;4985806;28;20081;-76
2023/09/04 00:35:28;;;;;;;8.90;5.03;;;;;;;14.30;100.00;102427.47;4981777;28;20025;-75
2023/09/04 00:37:54;;;;;;;8.20;5.25;;;;;;;14.26;100.00;102419.09;4988546;28;20038;-75
2023/09/04 00:40:19;;;;;;;10.43;5.75;;;;;;;14.22;100.00;102415.09;5006162;28;20117;-76
2023/09/04 00:42:45;;;;;;;8.15;5.47;;;;;;;14.18;100.00;102413.75;4986500;28;20133;-76
2023/09/04 00:45:13;;;;;;;7.45;5.03;;;;;;;14.15;100.00;102412.25;4999290;28;20057;-76
2023/09/04 00:47:44;;;;;;;8.00;4.32;;;;;;;14.17;100.00;102420.75;4984723;28;20030;-76
2023/09/04 00:50:18;;;;;;;6.82;4.47;;;;;;;14.19;100.00;102420.63;4985248;28;20033;-76
2023/09/04 00:52:44;;;;;;;11.43;5.05;;;;;;;14.21;100.00;102421.31;4985925;28;20074;-76
2023/09/04 00:55:10;;;;;;;10.30;5.28;;;;;;;14.23;100.00;102415.94;4989632;28;20044;-76
2023/09/04 00:57:38;;;;;;;6.85;4.65;;;;;;;14.23;100.00;102423.78;4986149;28;20034;-75
2023/09/04 01:00:05;;;;;;;6.78;4.80;;;;;;;14.25;100.00;102411.41;4992446;28;20071;-75
2023/09/04 01:02:31;;;;;;;8.05;5.20;;;;;;;14.26;100.00;102402.59;4991693;28;20033;-75
2023/09/04 01:04:57;;;;;;;9.00;5.88;;;;;;;14.26;100.00;102403.44;5005537;28;20578;-75
2023/09/04 01:07:22;;;;;;;10.43;6.40;;;;;;;14.27;100.00;102401.66;4974392;28;20037;-76
2023/09/04 01:09:48;;;;;;;13.82;6.95;;;;;;;14.26;100.00;102403.44;4987817;28;20076;-76
2023/09/04 01:12:21;;;;;;;12.18;6.85;;;;;;;14.20;100.00;102407.44;4971274;28;20045;-75
2023/09/04 01:14:48;;;;;;;10.10;5.95;;;;;;;14.09;100.00;102410.22;5006394;28;20124;-76
2023/09/04 01:17:14;;;;;;;7.18;5.30;;;;;;;13.98;100.00;102411.19;5003139;28;20440;-75
2023/09/04 01:19:40;;;;;;;10.45;5.70;;;;;;;13.92;100.00;102406.53;4991303;28;20085;-76
2023/09/04 01:22:07;;;;;;;11.63;5.45;;;;;;;13.91;100.00;102404.88;5008802;28;20038;-76
2023/09/04 01:24:33;;;;;;;7.55;5.22;;;;;;;13.89;100.00;102401.59;5007327;28;20034;-75
2023/09/04 01:27:26;;;;;;;11.50;5.88;;;;;;;13.85;100.00;102389.78;4988139;28;20069;-75
2023/09/04 01:30:09;;;;;;;10.85;5.43;;;;;;;13.85;100.00;102394.19;4986306;28;20492;-76
2023/09/04 01:32:39;;;;;;;8.20;5.40;;;;;;;13.85;100.00;102394.19;4987737;28;20048;-76
2023/09/04 01:35:07;;;;;;;9.70;5.97;;;;;;;13.80;100.00;102391.97;4983241;28;20515;-76
2023/09/04 01:37:34;;;;;;;11.35;6.40;;;;;;;13.76;100.00;102396.66;4984635;28;20738;-75
2023/09/04 01:40:01;;;;;;;8.52;5.70;;;;;;;13.70;100.00;102397.22;4990194;28;20034;-75
2023/09/04 01:42:26;;;;;;;9.32;5.57;;;;;;;13.63;100.00;102399.53;5007850;28;20034;-75
2023/09/04 01:44:52;;;;;;;8.00;5.53;;;;;;;13.58;100.00;102393.94;4986402;28;20033;-75
2023/09/04 01:47:17;;;;;;;14.25;6.20;;;;;;;13.55;100.00;102388.97;4989236;28;21026;-75
2023/09/04 01:49:43;;;;;;;10.23;5.60;;;;;;;13.57;100.00;102387.06;5009700;28;20026;-76
2023/09/04 01:52:09;;;;;;;9.05;5.65;;;;;;;13.60;100.00;102380.75;4986410;28;20092;-75
2023/09/04 01:54:36;;;;;;;11.07;5.68;;;;;;;13.63;100.00;102376.06;4979290;28;20141;-75
2023/09/04 01:57:01;;;;;;;8.02;5.80;;;;;;;13.65;100.00;102375.94;5004423;28;20506;-75
2023/09/04 01:59:27;;;;;;;6.82;5.10;;;;;;;13.67;100.00;102381.00;4985029;28;20036;-76
2023/09/04 02:01:52;;;;;;;11.35;6.28;;;;;;;13.66;100.00;102380.19;4987692;28;20034;-75
2023/09/04 02:04:18;;;;;;;13.23;6.50;;;;;;;13.60;100.00;102386.78;5005059;28;20068;-75
2023/09/04 02:06:43;;;;;;;11.43;6.35;;;;;;;13.56;100.00;102395.00;5005312;28;20412;-75
2023/09/04 02:09:09;;;;;;;12.77;6.68;;;;;;;13.49;100.00;102393.94;4993490;28;20026;-76
2023/09/04 02:11:34;;;;;;;11.43;6.10;;;;;;;13.39;100.00;102394.75;5008893;28;20061;-75
2023/09/04 02:14:00;;;;;;;9.38;5.95;;;;;;;13.31;100.00;102396.38;4990364;28;20041;-75
2023/09/04 02:16:25;;;;;;;9.18;6.43;;;;;;;13.22;100.00;102401.41;4987142;28;20046;-75
2023/09/04 02:18:51;;;;;;;10.10;5.45;;;;;;;13.20;100.00;102390.28;4991915;28;20143;-75
2023/09/04 02:21:17;;;;;;;10.13;5.05;;;;;;;13.21;100.00;102391.94;4972202;28;20035;-76
2023/09/04 02:23:42;;;;;;;6.97;5.18;;;;;;;13.22;100.00;102393.59;5004850;28;21001;-75
2023/09/04 02:26:08;;;;;;;8.48;5.03;;;;;;;13.20;100.00;102389.44;4988576;28;20116;-75
2023/09/04 02:28:33;;;;;;;8.27;5.43;;;;;;;13.17;100.00;102398.38;5004724;28;20037;-75
2023/09/04 02:31:06;;;;;;;8.07;5.65;;;;;;;13.16;100.00;102388.06;5004468;28;20085;-75
2023/09/04 02:33:32;;;;;;;7.57;5.30;;;;;;;13.13;100.00;102394.38;5006564;28;20120;-75
2023/09/04 02:35:59;;;;;;;8.30;5.38;;;;;;;13.12;100.00;102394.53;5008284;28;20441;-75
2023/09/04 02:38:24;;;;;;;13.93;5.95;;;;;;;13.10;100.00;102396.44;5009367;28;20092;-75
2023/09/04 02:40:50;;;;;;;13.88;5.95;;;;;;;13.10;100.00;102399.03;5006911;28;20038;-75
2023/09/04 02:43:15;;;;;;;11.38;6.57;;;;;;;13.07;100.00;102400.09;4987025;28;20030;-75
2023/09/04 02:45:41;;;;;;;11.80;6.38;;;;;;;13.08;100.00;102396.56;4988400;28;20432;-75
2023/09/04 02:48:07;;;;;;;10.43;6.50;;;;;;;13.08;100.00;102398.34;4987721;28;20186;-75
2023/09/04 02:50:33;;;;;;;9.57;5.55;;;;;;;13.07;100.00;102396.69;4987382;28;20052;-75
2023/09/04 02:52:59;;;;;;;8.50;5.57;;;;;;;13.07;100.00;102399.28;5006542;28;20030;-75
2023/09/04 02:55:24;;;;;;;12.32;6.60;;;;;;;13.07;100.00;102407.91;5004523;28;20485;-75
2023/09/04 02:57:50;;;;;;;8.82;5.75;;;;;;;13.09;100.00;102403.44;5006161;28;20460;-75
2023/09/04 03:00:15;;;;;;;8.40;5.78;;;;;;;13.09;100.00;102399.97;4991829;28;20034;-75
2023/09/04 03:02:41;;;;;;;10.65;6.80;;;;;;;13.13;100.00;102406.56;4970791;28;20031;-75
2023/09/04 03:05:07;;;;;;;9.93;5.80;;;;;;;13.11;100.00;102404.13;5007316;28;20049;-75
2023/09/04 03:07:33;;;;;;;12.10;6.20;;;;;;;13.11;100.00;102400.66;4987900;28;20046;-75
2023/09/04 03:10:00;;;;;;;11.85;6.78;;;;;;;13.10;100.00;102399.84;4988513;28;20030;-75
2023/09/04 03:12:27;;;;;;;9.93;6.70;;;;;;;13.09;100.00;102403.44;4984038;28;20487;-75
2023/09/04 03:14:57;;;;;;;9.40;6.32;;;;;;;13.08;100.00;102398.34;4990230;28;20038;-75
2023/09/04 03:17:23;;;;;;;10.50;6.93;;;;;;;13.07;100.00;102404.50;4987910;28;20116;-75
2023/09/04 03:19:53;;;;;;;16.48;7.05;;;;;;;13.08;100.00;102411.38;4983382;28;20031;-74
2023/09/04 03:22:20;;;;;;;10.25;7.18;;;;;;;13.07;100.00;102413.13;4992414;28;20536;-74
2023/09/04 03:24:46;;;;;;;11.75;7.00;;;;;;;13.05;100.00;102410.69;5001978;28;20396;-75
2023/09/04 03:27:11;;;;;;;10.43;7.07;;;;;;;13.04;100.00;102409.03;4985115;28;20088;-75
2023/09/04 03:29:37;;;;;;;9.90;6.53;;;;;;;13.04;100.00;102405.59;4989965;28;20443;-75
2023/09/04 03:32:03;;;;;;;14.68;7.57;;;;;;;13.03;100.00;102402.19;4982521;28;20041;-75
2023/09/04 03:34:29;;;;;;;11.05;7.00;;;;;;;13.00;100.00;102405.03;4988977;28;20028;-75
2023/09/04 03:36:55;;;;;;;10.65;6.90;;;;;;;12.90;100.00;102393.75;4988247;28;20045;-75
2023/09/04 03:39:21;;;;;;;8.68;6.65;;;;;;;12.78;100.00;102402.63;4988208;28;20048;-75
2023/09/04 03:41:47;;;;;;;8.45;5.55;;;;;;;12.70;100.00;102392.06;4986826;28;20037;-74
2023/09/04 03:44:14;;;;;;;10.40;6.20;;;;;;;12.64;100.00;102393.41;4987092;28;20021;-75
2023/09/04 03:46:40;;;;;;;12.20;6.55;;;;;;;12.61;100.00;102386.69;5004853;28;20046;-75
2023/09/04 03:49:05;;;;;;;8.90;6.20;;;;;;;12.55;100.00;102382.00;4968218;28;20034;-74
2023/09/04 03:51:31;;;;;;;13.70;6.05;;;;;;;12.51;100.00;102375.41;4996337;28;20189;-75
2023/09/04 03:54:01;;;;;;;10.07;5.68;;;;;;;12.47;100.00;102379.25;4981926;28;20037;-75
2023/09/04 03:56:30;;;;;;;9.73;5.13;;;;;;;12.44;100.00;102377.69;4999141;28;20038;-75
2023/09/04 03:58:57;;;;;;;7.40;5.32;;;;;;;12.41;100.00;102377.13;4978747;28;20030;-75
2023/09/04 04:01:23;;;;;;;8.70;5.82;;;;;;;12.41;100.00;102369.34;5000761;28;20034;-74
2023/09/04 04:03:52;;;;;;;8.15;5.43;;;;;;;12.43;100.00;102370.88;4971859;28;20281;-75
2023/09/04 04:06:18;;;;;;;8.32;5.35;;;;;;;12.45;100.00;102374.16;4977678;28;20033;-75
2023/09/04 04:08:46;;;;;;;8.25;5.60;;;;;;;12.48;100.00;102375.66;4988790;28;20614;-75
2023/09/04 04:11:12;;;;;;;8.10;5.50;;;;;;;12.51;100.00;102367.63;4989818;28;20037;-75
2023/09/04 04:13:38;;;;;;;9.30;5.88;;;;;;;12.51;100.00;102370.22;5009475;28;20030;-75
2023/09/04 04:16:04;;;;;;;10.38;5.50;;;;;;;12.49;100.00;102361.72;5002627;28;20049;-75
2023/09/04 04:18:31;;;;;;;10.23;6.43;;;;;;;12.45;100.00;102366.34;4987250;28;20029;-74
2023/09/04 04:20:57;;;;;;;8.95;6.38;;;;;;;12.41;100.00;102367.56;5003991;28;20401;-75
2023/09/04 04:23:23;;;;;;;12.02;6.57;;;;;;;12.39;100.00;102366.84;4999399;28;20034;-74
2023/09/04 04:25:49;;;;;;;10.07;6.43;;;;;;;12.39;100.00;102371.25;4987015;28;20087;-75
2023/09/04 04:28:19;;;;;;;11.63;6.78;;;;;;;12.39;100.00;102373.84;4986622;28;20186;-75
2023/09/04 04:30:45;;;;;;;10.90;6.20;;;;;;;12.34;100.00;102366.44;4998195;28;20030;-74
2023/09/04 04:33:12;;;;;;;9.07;6.10;;;;;;;12.29;100.00;102373.81;4988698;28;20496;-74
2023/09/04 04:35:39;;;;;;;9.70;6.22;;;;;;;12.25;100.00;102372.41;4988507;28;20048;-74
2023/09/04 04:38:05;;;;;;;7.90;6.00;;;;;;;12.21;100.00;102371.03;5004425;28;20038;-74
2023/09/04 04:40:31;;;;;;;9.95;6.47;;;;;;;12.17;100.00;102385.25;4985112;28;20033;-74
2023/09/04 04:42:58;;;;;;;7.90;5.63;;;;;;;12.13;100.00;102383.81;4978204;28;20030;-75
2023/09/04 04:45:24;;;;;;;9.63;5.55;;;;;;;12.09;100.00;102385.84;4982992;28;20088;-75
2023/09/04 04:47:50;;;;;;;8.98;5.70;;;;;;;12.05;100.00;102377.50;4973045;28;20034;-75
2023/09/04 04:50:15;;;;;;;8.60;5.40;;;;;;;12.03;100.00;102383.78;5005457;28;20477;-75
2023/09/04 04:52:41;;;;;;;9.20;5.45;;;;;;;11.99;100.00;102370.19;4995817;28;20468;-74
2023/09/04 04:55:07;;;;;;;6.45;4.63;;;;;;;11.96;100.00;102372.22;4996577;28;20018;-75
2023/09/04 04:57:36;;;;;;;6.80;5.00;;;;;;;11.94;100.00;102369.78;4987437;28;20496;-74
2023/09/04 05:00:06;;;;;;;6.18;4.28;;;;;;;11.94;100.00;102367.19;4988001;28;20547;-74
2023/09/04 05:02:37;;;;;;;7.43;4.57;;;;;;;11.97;100.00;102364.31;4971062;28;20066;-75
2023/09/04 05:05:03;;;;;;;8.50;5.22;;;;;;;11.96;100.00;102370.47;4971818;28;20025;-75
2023/09/04 05:07:29;;;;;;;6.28;4.95;;;;;;;11.96;100.00;102369.63;4992876;28;20033;-74
2023/09/04 05:09:56;;;;;;;8.40;5.40;;;;;;;11.97;100.00;102371.28;4990793;28;20034;-74
2023/09/04 05:12:23;;;;;;;14.43;5.75;;;;;;;12.00;100.00;102364.06;4988389;28;21177;-74
2023/09/04 05:14:48;;;;;;;9.18;5.88;;;;;;;12.04;100.00;102368.06;5010288;28;20127;-74
2023/09/04 05:17:16;;;;;;;11.00;6.03;;;;;;;12.05;100.00;102361.91;4991149;28;20109;-74
2023/09/04 05:19:42;;;;;;;11.73;6.38;;;;;;;12.06;100.00;102367.94;4996270;28;20042;-74
2023/09/04 05:22:09;;;;;;;11.52;6.57;;;;;;;12.07;100.00;102361.75;5009863;28;20037;-74
2023/09/04 05:24:34;;;;;;;8.88;6.35;;;;;;;12.08;100.00;102361.63;4975652;28;20026;-74
2023/09/04 05:27:01;;;;;;;12.18;7.00;;;;;;;12.08;100.00;102369.44;4992995;28;20484;-74
2023/09/04 05:29:26;;;;;;;10.45;6.63;;;;;;;12.12;100.00;102364.81;5005734;28;20025;-74
2023/09/04 05:31:52;;;;;;;9.52;6.30;;;;;;;12.14;100.00;102368.09;5007128;28;20575;-74
2023/09/04 05:34:18;;;;;;;12.05;6.72;;;;;;;12.19;100.00;102367.75;5008083;28;20030;-74
2023/09/04 05:36:44;;;;;;;17.85;6.30;;;;;;;12.24;100.00;102370.75;5008425;28;20038;-74
2023/09/04 05:39:10;;;;;;;12.50;6.93;;;;;;;12.26;100.00;102372.28;5006772;28;20037;-74
2023/09/04 05:41:38;;;;;;;10.57;6.75;;;;;;;12.30;100.00;102378.06;5009804;28;20045;-74
2023/09/04 05:44:04;;;;;;;16.08;6.93;;;;;;;12.33;100.00;102369.16;5013481;28;20169;-74
2023/09/04 05:46:36;;;;;;;10.93;6.07;;;;;;;12.35;100.00;102369.84;5005714;28;20125;-74
2023/09/04 05:49:01;;;;;;;9.45;6.32;;;;;;;12.38;100.00;102357.41;5010521;28;20040;-74
2023/09/04 05:51:26;;;;;;;14.60;6.88;;;;;;;12.42;100.00;102360.59;5004602;28;20041;-74
2023/09/04 05:53:52;;;;;;;10.23;6.65;;;;;;;12.45;100.00;102363.75;5016366;28;20045;-74
2023/09/04 05:56:18;;;;;;;14.73;7.05;;;;;;;12.50;100.00;102368.56;5008040;28;20034;-74
2023/09/04 05:58:51;;;;;;;12.38;7.35;;;;;;;12.55;100.00;102370.78;5009472;28;20037;-75
2023/09/04 06:01:17;;;;;;;;;;;;;;;12.59;100.00;102372.97;5011474;28;20045;-75
2023/09/04 06:03:44;;;;;;;8.43;6.32;;;;;;;12.62;100.00;102380.53;5012564;28;19924;-74
2023/09/04 06:06:10;;;;;;;11.38;6.97;;;;;;;12.66;100.00;102374.09;5003606;28;20345;-74
2023/09/04 06:08:36;;;;;;;9.13;6.13;;;;;;;12.72;100.00;102358.94;5012545;28;20476;-74
2023/09/04 06:11:03;;;;;;;11.02;6.35;;;;;;;12.77;100.00;102368.00;5008349;28;20033;-74
2023/09/04 06:13:29;;;;;;;10.52;6.90;;;;;;;12.82;100.00;102365.78;5012885;28;20121;-74
2023/09/04 06:15:54;;;;;;;10.20;6.47;;;;;;;12.88;100.00;102372.25;5010877;28;20655;-74
2023/09/04 06:18:20;;;;;;;12.75;6.70;;;;;;;12.93;100.00;102366.66;5009878;28;20033;-74
2023/09/04 06:20:46;;;;;;;10.38;7.22;;;;;;;13.00;100.00;102378.19;5018125;28;20041;-74
2023/09/04 06:23:12;;;;;;;12.02;7.20;;;;;;;13.05;100.00;102365.56;5016778;28;20121;-75
2023/09/04 06:25:42;;;;;;;13.40;7.47;;;;;;;13.14;100.00;102371.75;5012678;28;20111;-74
2023/09/04 06:28:10;;;;;;;8.55;6.20;;;;;;;13.22;100.00;102362.34;5008678;28;20041;-74
2023/09/04 06:30:35;;;;;;;10.80;6.68;;;;;;;13.31;100.00;102360.72;5019083;28;20120;-74
2023/09/04 06:33:02;;;;;;;11.95;7.00;;;;;;;13.42;100.00;102362.38;5006220;28;20038;-75
2023/09/04 06:35:28;;;;;;;14.60;8.95;;;;;;;13.52;100.00;102357.97;5014814;28;20414;-75
2023/09/04 06:37:54;;;;;;;12.98;7.82;;;;;;;13.71;100.00;102359.75;5010226;28;20030;-75
2023/09/04 06:40:20;;;;;;;11.38;8.40;;;;;;;13.87;100.00;102355.75;5005619;28;20104;-74
2023/09/04 06:42:46;;;;;;;16.33;7.70;;;;;;;14.11;100.00;102365.72;5007019;28;20038;-75
2023/09/04 06:45:12;;;;;;;9.27;6.65;;;;;;;14.36;100.00;102357.25;5004222;28;20030;-76
2023/09/04 06:47:38;;;;;;;7.90;5.75;;;;;;;14.64;100.00;102359.13;4965543;28;20118;-76
2023/09/04 06:50:07;;;;;;;10.25;6.18;;;;;;;14.92;100.00;102359.94;4988753;28;20023;-75
2023/09/04 06:52:33;;;;;;;8.32;5.63;;;;;;;15.24;100.00;102355.97;4985512;28;20457;-75
2023/09/04 06:54:59;;;;;;;9.75;6.10;;;;;;;15.68;100.00;102345.59;4976985;28;20119;-76
2023/09/04 06:57:24;;;;;;;14.45;8.80;;;;;;;16.28;100.00;102347.47;4965201;28;20039;-75
2023/09/04 06:59:50;;;;;;;8.95;5.80;;;;;;;17.07;100.00;102341.03;4987259;28;20038;-76
2023/09/04 07:02:16;;;;;;;8.75;4.93;;;;;;;17.64;94.25;102348.09;4984880;28;20125;-76
2023/09/04 07:04:41;;;;;;;10.40;4.90;;;;;;;17.98;88.92;102341.84;4968486;28;20034;-75
2023/09/04 07:07:07;;;;;;;8.68;4.75;;;;;;;18.39;86.77;102344.34;4991985;28;20042;-75
2023/09/04 07:09:32;;;;;;;9.60;6.07;;;;;;;18.66;84.84;102347.50;4993001;28;20037;-74
2023/09/04 07:11:58;;;;;;;6.55;4.68;;;;;;;19.02;83.68;102347.00;4978744;28;20046;-74
2023/09/04 07:14:23;;;;;;;6.63;4.40;;;;;;;19.47;81.22;102347.97;4993442;28;20465;-75
2023/09/04 07:16:48;;;;;;;7.15;3.97;;;;;;;19.83;79.51;102345.53;4991801;28;20042;-75
2023/09/04 07:19:14;;;;;;;7.95;4.35;;;;;;;20.11;76.90;102341.44;4992773;28;20038;-75
2023/09/04 07:21:40;;;;;;;7.60;4.22;;;;;;;20.41;75.86;102337.78;4986823;28;20043;-74
2023/09/04 07:24:06;;;;;;;4.85;3.85;;;;;;;20.63;73.51;102332.59;4988129;28;20034;-74
2023/09/04 07:26:31;;;;;;;10.15;3.85;;;;;;;20.67;73.89;102330.41;4988194;28;20047;-74
2023/09/04 07:28:57;;;;;;;7.75;3.95;;;;;;;20.67;73.57;102330.41;4973734;28;20105;-75
2023/09/04 07:31:22;;;;;;;8.30;4.18;;;;;;;20.96;72.37;102332.97;4986594;28;20035;-74
2023/09/04 07:33:49;;;;;;;8.20;3.85;;;;;;;21.16;72.27;102330.47;4986463;28;20038;-74
2023/09/04 07:36:14;;;;;;;7.57;3.92;;;;;;;21.24;70.46;102334.00;4987782;28;21020;-74
2023/09/04 07:38:40;;;;;;;7.43;4.18;;;;;;;20.72;70.97;102339.41;4983588;28;20074;-75
2023/09/04 07:41:06;;;;;;;6.65;4.18;;;;;;;20.79;71.84;102348.19;4985605;28;20515;-73
2023/09/04 07:43:32;;;;;;;6.68;4.03;;;;;;;20.88;70.94;102340.97;4983461;28;20034;-73
2023/09/04 07:45:58;;;;;;;10.35;3.83;;;;;;;21.44;70.66;102335.00;4999163;28;20050;-74
2023/09/04 07:48:24;;;;;;;8.50;3.50;;;;;;;21.62;68.27;102342.44;5005779;28;20027;-74
2023/09/04 07:50:52;;;;;;;7.95;3.53;;;;;;;21.90;67.80;102346.88;5001259;28;20038;-76
2023/09/04 07:53:17;;;;;;;7.63;3.20;;;;;;;21.82;67.65;102345.22;4987128;28;20037;-74
2023/09/04 07:55:43;;;;;;;5.40;2.97;;;;;;;21.89;66.92;102351.34;5006921;28;20092;-74
2023/09/04 07:58:08;;;;;;;5.75;3.30;;;;;;;22.00;66.04;102347.38;5007003;28;20037;-75
2023/09/04 08:00:34;;;;;;;5.97;3.17;;;;;;;22.19;64.72;102348.47;5006979;28;20029;-76
2023/09/04 08:02:59;;;;;;;7.07;3.20;;;;;;;22.26;63.93;102346.69;5005776;28;20045;-75
2023/09/04 08:05:25;;;;;;;5.20;2.75;;;;;;;21.99;64.47;102342.28;5006712;28;20034;-74
2023/09/04 08:07:50;;;;;;;6.22;3.30;;;;;;;22.22;63.58;102339.34;4987317;28;20045;-75
2023/09/04 08:10:16;;;;;;;7.32;3.15;;;;;;;22.81;63.99;102336.09;5001827;28;20034;-74
2023/09/04 08:12:42;;;;;;;8.18;3.25;;;;;;;22.86;62.34;102335.50;5004494;28;20393;-76
2023/09/04 08:15:08;;;;;;;4.40;2.72;;;;;;;22.85;62.52;102325.91;5005946;28;20037;-76
2023/09/04 08:17:35;;;;;;;6.65;3.10;;;;;;;22.93;62.07;102328.41;5006626;28;20072;-76
2023/09/04 08:20:00;;;;;;;5.30;3.03;;;;;;;23.19;61.57;102322.34;5004000;28;20048;-75
2023/09/04 08:22:26;;;;;;;5.18;2.50;;;;;;;22.63;61.88;102315.53;4986325;28;20045;-76
2023/09/04 08:24:54;;;;;;;12.73;2.83;;;;;;;22.38;64.34;102315.25;5003347;28;20033;-73
2023/09/04 08:27:19;;;;;;;5.88;2.92;;;;;;;22.91;63.26;102315.38;5005228;28;20120;-73
2023/09/04 08:29:45;;;;;;;4.93;2.25;;;;;;;23.39;62.63;102305.63;4986171;28;20033;-74
2023/09/04 08:32:10;;;;;;;8.68;2.92;;;;;;;23.63;58.84;102306.81;4999797;28;20114;-75
2023/09/04 08:34:36;;;;;;;5.20;2.45;;;;;;;23.67;61.04;102308.84;4990959;28;20076;-74
2023/09/04 08:37:01;;;;;;;3.95;2.35;;;;;;;23.88;58.98;102309.63;5004895;28;20088;-75
2023/09/04 08:39:26;;;;;;;9.70;2.50;;;;;;;24.17;59.69;102305.66;5003254;28;20030;-75
2023/09/04 08:41:52;;;;;;;5.97;2.72;;;;;;;24.32;57.46;102302.75;5005205;28;20045;-74
2023/09/04 08:44:19;;;;;;;3.92;2.40;;;;;;;24.50;57.76;102304.66;4994115;28;20049;-74
2023/09/04 08:46:46;;;;;;;4.03;2.42;;;;;;;24.39;56.32;102305.34;5007927;28;20042;-74
2023/09/04 08:49:14;;;;;;;6.18;2.78;;;;;;;24.00;57.42;102305.31;5007635;28;20034;-73
2023/09/04 08:51:40;;;;;;;5.15;2.60;;;;;;;24.43;57.54;102301.22;5013535;28;20046;-75
2023/09/04 08:54:06;;;;;;;2.60;1.83;;;;;;;24.80;56.77;102298.81;5014704;28;20033;-74
2023/09/04 08:56:32;;;;;;;6.25;2.50;;;;;;;24.86;56.73;102304.06;5014917;28;20037;-74
2023/09/04 08:58:57;;;;;;;5.10;2.83;;;;;;;24.99;57.33;102300.47;5002838;28;20037;-75
2023/09/04 09:01:26;;;;;;;9.00;3.35;;;;;;;25.60;58.45;102296.28;4993932;28;20034;-76
2023/09/04 09:03:52;;;;;;;3.30;2.22;;;;;;;25.39;54.36;102305.50;5009775;28;20052;-76
2023/09/04 09:06:17;;;;;;;4.22;2.08;;;;;;;25.28;52.59;102302.72;5015038;28;20042;-75
2023/09/04 09:08:44;;;;;;;5.30;2.55;;;;;;;25.29;54.90;102310.47;5015251;28;20033;-74
2023/09/04 09:11:13;;;;;;;6.05;2.22;;;;;;;25.33;53.10;102314.31;5009065;28;20042;-73
2023/09/04 09:13:39;;;;;;;4.82;2.45;;;;;;;25.12;54.08;102310.19;5012085;28;20491;-74
2023/09/04 09:16:05;;;;;;;3.45;2.22;;;;;;;25.08;54.12;102308.19;5008320;28;20553;-75
2023/09/04 09:18:42;;;;;;;7.55;2.67;;;;;;;25.02;54.48;102310.66;5009545;28;20018;-74
2023/09/04 09:21:26;;;;;;;5.22;2.75;;;;;;;25.32;54.46;102303.94;5011403;28;20558;-74
2023/09/04 09:24:17;;;;;;;4.28;2.85;;;;;;;25.31;54.76;102308.41;5011068;28;20042;-74
2023/09/04 09:26:48;;;;;;;4.20;2.25;;;;;;;24.99;53.08;102291.72;5011591;28;20496;-75
2023/09/04 09:29:15;;;;;;;6.60;2.15;;;;;;;25.10;52.42;102292.84;5013784;28;20045;-79
2023/09/04 09:31:43;;;;;;;3.97;2.20;;;;;;;25.36;52.58;102300.59;5021797;28;20084;-75
2023/09/04 09:34:10;;;;;;;4.53;2.35;;;;;;;25.47;55.26;102293.78;5012954;28;20034;-75
2023/09/04 09:36:36;;;;;;;7.38;2.53;;;;;;;25.50;51.63;102292.50;5018156;28;20505;-78
2023/09/04 09:39:03;;;;;;;4.43;2.40;;;;;;;25.17;52.76;102288.31;5007303;28;20040;-76
2023/09/04 09:41:29;;;;;;;5.63;2.58;;;;;;;25.35;54.85;102290.19;5011986;28;20045;-76
2023/09/04 09:43:54;;;;;;;9.15;2.38;;;;;;;25.35;53.13;102279.59;5012945;28;20040;-75
2023/09/04 09:46:20;;;;;;;5.15;2.40;;;;;;;25.48;54.16;102282.09;5011034;28;20064;-75
2023/09/04 09:48:46;;;;;;;4.47;2.63;;;;;;;24.99;52.22;102279.25;5010780;28;20042;-76
2023/09/04 09:51:13;;;;;;;5.25;2.95;;;;;;;25.02;52.50;102276.19;5011253;28;20511;-74
2023/09/04 09:53:46;;;;;;;5.70;2.60;;;;;;;25.25;52.06;102277.44;5013136;28;20112;-77
2023/09/04 09:56:14;;;;;;;5.38;1.92;;;;;;;25.33;52.57;102277.16;5009649;28;20030;-76
2023/09/04 09:58:41;;;;;;;4.93;2.97;;;;;;;25.34;51.60;102270.00;5003661;28;20022;-75
2023/09/04 10:01:08;;;;;;;6.70;2.28;;;;;;;25.07;51.66;102275.50;5009596;28;20042;-75
2023/09/04 10:03:35;;;;;;;3.22;2.33;;;;;;;24.93;52.17;102271.38;5013980;28;20088;-75
2023/09/04 10:06:04;;;;;;;3.20;2.20;;;;;;;25.02;52.37;102268.22;5015138;28;20041;-77
2023/09/04 10:08:33;;;;;;;3.47;2.50;;;;;;;25.03;52.39;102267.22;5016959;28;20034;-76
2023/09/04 10:11:02;;;;;;;4.03;2.38;;;;;;;25.15;53.19;102256.69;5013140;28;20048;-75
2023/09/04 10:13:30;;;;;;;3.65;2.35;;;;;;;25.21;51.81;102265.59;5009152;28;20485;-75
2023/09/04 10:16:00;;;;;;;4.18;2.55;;;;;;;24.94;51.56;102257.91;5012264;28;20045;-76
2023/09/04 10:18:29;;;;;;;3.90;2.72;;;;;;;24.86;52.67;102255.50;5005567;28;20177;-76
2023/09/04 10:20:57;;;;;;;4.25;2.80;;;;;;;24.96;52.51;102268.25;5015326;28;20085;-74
2023/09/04 10:23:34;;;;;;;7.35;2.38;;;;;;;25.18;50.42;102266.84;5013083;28;20388;-75
2023/09/04 10:26:07;;;;;;;2.83;2.20;;;;;;;25.29;52.17;102259.25;5014751;28;20037;-76
2023/09/04 10:28:37;;;;;;;4.18;2.30;;;;;;;25.46;50.12;102249.66;5015183;28;20034;-77
2023/09/04 10:31:03;;;;;;;5.47;2.22;;;;;;;25.57;52.17;102256.88;5019463;28;20845;-76
2023/09/04 10:33:29;;;;;;;6.30;3.00;;;;;;;25.49;51.67;102251.06;5014043;28;20033;-75
2023/09/04 10:35:55;;;;;;;4.20;1.98;;;;;;;25.61;50.53;102243.97;5010984;28;20041;-76
2023/09/04 10:38:22;;;;;;;5.82;1.70;;;;;;;25.79;49.62;102248.47;5010115;28;20148;-76
2023/09/04 10:40:48;;;;;;;3.30;2.03;;;;;;;25.60;50.64;102245.03;5009746;28;20480;-77
2023/09/04 10:43:13;;;;;;;3.85;2.38;;;;;;;25.62;50.41;102235.00;5016013;28;20484;-75
2023/09/04 10:45:39;;;;;;;4.65;2.28;;;;;;;25.58;49.77;102237.28;5010843;28;20040;-76
2023/09/04 10:48:06;;;;;;;5.43;2.20;;;;;;;25.66;50.20;102235.38;5009667;28;20043;-76
2023/09/04 10:50:37;;;;;;;3.53;2.15;;;;;;;25.77;48.92;102227.44;5011439;28;20036;-76
2023/09/04 10:53:05;;;;;;;3.75;2.08;;;;;;;25.48;49.37;102233.50;5016986;28;20033;-75
2023/09/04 10:55:31;;;;;;;3.45;2.22;;;;;;;25.33;49.59;102226.72;5011917;28;20148;-77
2023/09/04 10:57:59;;;;;;;3.17;2.10;;;;;;;25.41;46.39;102223.78;5012862;28;20111;-75
2023/09/04 11:00:28;;;;;;;3.45;1.98;;;;;;;25.34;46.30;102222.25;5007012;28;20045;-75
2023/09/04 11:02:53;;;;;;;2.63;1.77;;;;;;;25.30;48.55;102221.88;5012106;28;20065;-74
2023/09/04 11:05:19;;;;;;;3.90;2.05;;;;;;;25.29;48.38;102212.25;5012926;28;20484;-76
2023/09/04 11:07:44;;;;;;;2.72;1.80;;;;;;;25.51;49.19;102219.81;5005560;28;20511;-76
2023/09/04 11:10:13;;;;;;;4.38;2.17;;;;;;;25.62;47.13;102213.75;5011542;28;20033;-76
2023/09/04 11:12:39;;;;;;;3.80;2.22;;;;;;;25.49;48.68;102211.25;5007116;28;20033;-74
2023/09/04 11:15:14;;;;;;;2.97;2.08;;;;;;;25.58;49.18;102213.38;5009224;28;20052;-78